createdAt,value
2017-11-10T00:00:20.130Z,101474.34
2017-11-10T00:02:48.487Z,101476.18
2017-11-10T00:05:17.543Z,101474.05
2017-11-10T00:07:47.538Z,101469.44
2017-11-10T00:10:16.162Z,101471.88
2017-11-10T00:12:44.555Z,101462.47
2017-11-10T00:15:14.507Z,101463.42
2017-11-10T00:17:42.884Z,101458.87
2017-11-10T00:20:11.261Z,101462.92
2017-11-10T00:22:39.636Z,101452.78
2017-11-10T00:25:08.014Z,101443.13
2017-11-10T00:27:36.539Z,101447.84
2017-11-10T00:30:05.607Z,101448.11
2017-11-10T00:32:34.070Z,101448.24
2017-11-10T00:35:02.704Z,101439.33
2017-11-10T00:37:32.208Z,101450.26
2017-11-10T00:40:00.582Z,101446.28
2017-11-10T00:42:29.034Z,101450.44
2017-11-10T00:44:57.412Z,101457.30
2017-11-10T00:47:25.840Z,101454.73
2017-11-10T00:49:54.396Z,101450.64
2017-11-10T00:52:23.447Z,101451.45
2017-11-10T00:54:52.630Z,101455.95
2017-11-10T00:57:21.194Z,101459.33
2017-11-10T00:59:50.207Z,101457.77
2017-11-10T01:02:19.355Z,101456.22
2017-11-10T01:04:47.889Z,101456.22
2017-11-10T01:07:17.134Z,101455.86
2017-11-10T01:09:45.473Z,101450.52
2017-11-10T01:12:14.945Z,101446.97
2017-11-10T01:14:43.694Z,101435.03
2017-11-10T01:17:13.022Z,101433.47
2017-11-10T01:19:42.319Z,101440.35
2017-11-10T01:22:16.550Z,101440.02
2017-11-10T01:24:45.056Z,101437.73
2017-11-10T01:27:13.428Z,101435.95
2017-11-10T01:29:42.270Z,101424.05
2017-11-10T01:32:10.819Z,101427.34
2017-11-10T01:34:39.204Z,101413.37
2017-11-10T01:37:07.604Z,101419.70
2017-11-10T01:39:36.847Z,101417.45
2017-11-10T01:42:05.234Z,101407.42
2017-11-10T01:44:34.119Z,101393.57
2017-11-10T01:47:02.671Z,101381.25
2017-11-10T01:49:31.001Z,101381.27
2017-11-10T01:52:00.383Z,101383.23
2017-11-10T01:54:29.853Z,101368.66
2017-11-10T01:56:58.203Z,101375.38
2017-11-10T01:59:26.572Z,101368.63
2017-11-10T02:01:58.910Z,101363.48
2017-11-10T02:04:27.260Z,101353.85
2017-11-10T02:06:56.655Z,101353.73
2017-11-10T02:09:25.104Z,101342.89
2017-11-10T02:11:55.327Z,101342.62
2017-11-10T02:14:23.848Z,101337.89
2017-11-10T02:16:52.203Z,101345.55
2017-11-10T02:19:21.322Z,101344.77
2017-11-10T02:21:49.717Z,101334.14
2017-11-10T02:24:18.046Z,101335.36
2017-11-10T02:26:47.172Z,101334.47
2017-11-10T02:29:16.667Z,101335.19
2017-11-10T02:31:45.854Z,101335.28
2017-11-10T02:34:15.130Z,101335.09
2017-11-10T02:36:44.805Z,101335.30
2017-11-10T02:39:13.177Z,101336.02
2017-11-10T02:41:41.543Z,101332.63
2017-11-10T02:44:09.906Z,101333.86
2017-11-10T02:46:39.014Z,101326.02
2017-11-10T02:49:07.355Z,101334.94
2017-11-10T02:51:35.723Z,101329.59
2017-11-10T02:54:04.057Z,101335.03
2017-11-10T02:56:32.398Z,101321.88
2017-11-10T02:59:01.220Z,101318.72
2017-11-10T03:01:29.567Z,101307.23
2017-11-10T03:03:57.927Z,101308.22
2017-11-10T03:06:27.088Z,101295.95
2017-11-10T03:08:55.438Z,101298.05
2017-11-10T03:11:25.162Z,101297.51
2017-11-10T03:13:53.555Z,101299.29
2017-11-10T03:16:22.436Z,101292.89
2017-11-10T03:18:50.796Z,101289.30
2017-11-10T03:21:21.050Z,101286.94
2017-11-10T03:23:49.668Z,101290.30
2017-11-10T03:26:18.025Z,101287.87
2017-11-10T03:28:46.386Z,101284.80
2017-11-10T03:31:14.769Z,101288.98
2017-11-10T03:33:43.119Z,101284.84
2017-11-10T03:36:12.312Z,101291.14
2017-11-10T03:38:40.691Z,101288.74
2017-11-10T03:41:09.842Z,101281.94
2017-11-10T03:43:38.767Z,101278.18
2017-11-10T03:46:07.126Z,101276.36
2017-11-10T03:48:35.464Z,101274.66
2017-11-10T03:51:04.481Z,101281.20
2017-11-10T03:53:32.855Z,101269.20
2017-11-10T03:56:01.214Z,101264.65
2017-11-10T03:58:30.311Z,101264.30
2017-11-10T04:00:58.646Z,101274.04
2017-11-10T04:03:26.994Z,101269.09
2017-11-10T04:05:55.445Z,101256.11
2017-11-10T04:08:23.786Z,101258.23
2017-11-10T04:10:52.145Z,101261.45
2017-11-10T04:13:20.513Z,101260.25
2017-11-10T04:15:48.874Z,101253.20
2017-11-10T04:18:17.890Z,101247.27
2017-11-10T04:20:46.289Z,101245.15
2017-11-10T04:23:14.912Z,101243.76
2017-11-10T04:25:43.978Z,101241.31
2017-11-10T04:28:12.411Z,101231.05
2017-11-10T04:30:42.431Z,101230.59
2017-11-10T04:33:11.428Z,101229.86
2017-11-10T04:35:40.018Z,101223.69
2017-11-10T04:38:08.371Z,101219.91
2017-11-10T04:40:36.840Z,101220.79
2017-11-10T04:43:05.997Z,101222.02
2017-11-10T04:45:35.174Z,101223.09
2017-11-10T04:48:03.760Z,101211.72
2017-11-10T04:50:33.647Z,101220.01
2017-11-10T04:53:02.628Z,101216.19
2017-11-10T04:55:30.976Z,101215.29
2017-11-10T04:58:00.154Z,101215.56
2017-11-10T05:00:28.516Z,101222.08
2017-11-10T05:05:28.031Z,101206.80
2017-11-10T05:07:56.588Z,101196.67
2017-11-10T05:10:24.943Z,101198.92
2017-11-10T05:12:53.992Z,101191.45
2017-11-10T05:15:22.592Z,101187.66
2017-11-10T05:17:50.926Z,101194.50
2017-11-10T05:20:19.313Z,101178.64
2017-11-10T05:22:47.654Z,101180.34
2017-11-10T05:25:16.879Z,101167.73
2017-11-10T05:27:46.519Z,101170.23
2017-11-10T05:30:15.626Z,101163.15
2017-11-10T05:32:44.446Z,101161.63
2017-11-10T05:35:13.031Z,101150.59
2017-11-10T05:37:41.387Z,101149.97
2017-11-10T05:40:10.422Z,101148.73
2017-11-10T05:42:39.424Z,101134.26
2017-11-10T05:45:09.134Z,101123.30
2017-11-10T05:47:37.478Z,101124.47
2017-11-10T05:50:05.855Z,101115.76
2017-11-10T05:52:34.205Z,101116.32
2017-11-10T05:55:02.550Z,101109.59
2017-11-10T05:57:32.642Z,101108.16
2017-11-10T06:00:00.985Z,101105.79
2017-11-10T06:02:29.363Z,101104.37
2017-11-10T06:04:58.350Z,101093.94
2017-11-10T06:07:26.687Z,101088.61
2017-11-10T06:09:55.991Z,101086.02
2017-11-10T06:12:24.405Z,101083.34
2017-11-10T06:14:53.539Z,101079.48
2017-11-10T06:17:21.878Z,101084.51
2017-11-10T06:19:51.258Z,101076.27
2017-11-10T06:22:20.379Z,101072.33
2017-11-10T06:24:48.723Z,101075.27
2017-11-10T06:27:17.100Z,101075.87
2017-11-10T06:29:46.433Z,101060.66
2017-11-10T06:32:14.985Z,101069.73
2017-11-10T06:34:43.640Z,101067.17
2017-11-10T06:37:11.981Z,101068.69
2017-11-10T06:39:41.072Z,101074.75
2017-11-10T06:42:09.520Z,101067.66
2017-11-10T06:44:37.871Z,101062.77
2017-11-10T06:47:07.433Z,101056.48
2017-11-10T06:49:36.575Z,101050.97
2017-11-10T06:52:04.915Z,101041.88
2017-11-10T06:54:33.256Z,101044.85
2017-11-10T06:57:01.639Z,101038.29
2017-11-10T06:59:29.977Z,101035.61
2017-11-10T07:01:58.303Z,101042.08
2017-11-10T07:04:26.826Z,101039.25
2017-11-10T07:06:55.285Z,101033.63
2017-11-10T07:09:24.288Z,101024.48
2017-11-10T07:11:52.664Z,101019.59
2017-11-10T07:14:21.777Z,101027.12
2017-11-10T07:16:51.478Z,101010.08
2017-11-10T07:19:20.249Z,101013.95
2017-11-10T07:21:48.594Z,101009.21
2017-11-10T07:24:16.942Z,101004.67
2017-11-10T07:26:46.136Z,101006.61
2017-11-10T07:29:15.027Z,101005.80
2017-11-10T07:31:43.425Z,100989.95
2017-11-10T07:34:11.835Z,101000.67
2017-11-10T07:36:40.179Z,101000.09
2017-11-10T07:39:08.576Z,100996.21
2017-11-10T07:41:37.864Z,100990.91
2017-11-10T07:44:06.223Z,100979.37
2017-11-10T07:46:34.816Z,100982.35
2017-11-10T07:49:04.459Z,100980.98
2017-11-10T07:51:33.193Z,100978.83
2017-11-10T07:54:03.346Z,100989.72
2017-11-10T07:56:31.734Z,100983.03
2017-11-10T07:59:00.127Z,100973.89
2017-11-10T08:01:29.195Z,100977.70
2017-11-10T08:04:01.543Z,100970.06
2017-11-10T08:06:29.886Z,100965.66
2017-11-10T08:08:59.189Z,100964.97
2017-11-10T08:11:28.250Z,100959.50
2017-11-10T08:13:58.143Z,100949.86
2017-11-10T08:16:26.497Z,100948.34
2017-11-10T08:18:55.651Z,100937.91
2017-11-10T08:21:24.475Z,100922.43
2017-11-10T08:23:54.664Z,100922.33
2017-11-10T08:26:23.042Z,100920.57
2017-11-10T08:28:51.719Z,100910.71
2017-11-10T08:31:20.295Z,100901.67
2017-11-10T08:33:49.190Z,100891.55
2017-11-10T08:36:17.524Z,100896.74
2017-11-10T08:38:46.637Z,100893.41
2017-11-10T08:41:15.698Z,100898.45
2017-11-10T08:43:44.073Z,100887.80
2017-11-10T08:46:13.292Z,100879.21
2017-11-10T08:48:43.227Z,100882.86
2017-11-10T08:51:12.450Z,100876.06
2017-11-10T08:53:40.798Z,100881.77
2017-11-10T08:56:09.781Z,100873.27
2017-11-10T08:58:38.881Z,100867.86
2017-11-10T09:01:07.276Z,100862.70
2017-11-10T09:03:35.926Z,100860.81
2017-11-10T09:06:04.287Z,100859.29
2017-11-10T09:08:32.643Z,100851.59
2017-11-10T09:11:01.018Z,100841.50
2017-11-10T09:13:29.771Z,100837.58
2017-11-10T09:15:59.583Z,100826.63
2017-11-10T09:18:28.666Z,100821.78
2017-11-10T09:20:58.020Z,100824.28
2017-11-10T09:23:26.738Z,100822.27
2017-11-10T09:25:55.096Z,100811.97
2017-11-10T09:28:28.696Z,100815.33
2017-11-10T09:31:04.234Z,100805.77
2017-11-10T09:33:45.257Z,100793.11
2017-11-10T09:36:20.358Z,100800.82
2017-11-10T09:42:19.240Z,100795.00
2017-11-10T09:44:47.586Z,100777.63
2017-11-10T09:50:42.047Z,100771.38
2017-11-10T09:53:11.773Z,100763.25
2017-11-10T09:55:43.438Z,100764.93
2017-11-10T10:01:42.595Z,100748.41
2017-11-10T10:04:13.197Z,100735.66
2017-11-10T10:06:44.274Z,100726.52
2017-11-10T10:12:21.356Z,100701.94
2017-11-10T10:18:02.084Z,100711.41
2017-11-10T10:20:34.867Z,100689.74
2017-11-10T10:23:03.218Z,100666.89
2017-11-10T10:25:32.348Z,100673.21
2017-11-10T10:28:00.954Z,100661.45
2017-11-10T10:30:29.918Z,100657.72
2017-11-10T10:32:58.259Z,100645.83
2017-11-10T10:35:26.692Z,100644.78
2017-11-10T10:37:55.055Z,100623.08
2017-11-10T10:40:24.298Z,100625.27
2017-11-10T10:42:53.649Z,100622.22
2017-11-10T10:45:22.001Z,100634.59
2017-11-10T10:47:50.357Z,100613.94
2017-11-10T10:50:18.930Z,100610.14
2017-11-10T10:52:48.750Z,100602.44
2017-11-10T10:55:17.103Z,100592.42
2017-11-10T10:57:46.104Z,100591.89
2017-11-10T11:00:14.454Z,100585.81
2017-11-10T11:02:42.855Z,100582.02
2017-11-10T11:05:11.238Z,100576.34
2017-11-10T11:07:39.599Z,100570.59
2017-11-10T11:10:07.953Z,100563.23
2017-11-10T11:12:37.871Z,100561.91
2017-11-10T11:15:07.492Z,100548.58
2017-11-10T11:17:36.596Z,100541.16
2017-11-10T11:20:05.833Z,100538.54
2017-11-10T11:22:34.387Z,100547.14
2017-11-10T11:25:02.754Z,100523.10
2017-11-10T11:27:31.347Z,100518.61
2017-11-10T11:29:59.707Z,100510.22
2017-11-10T11:32:28.094Z,100500.23
2017-11-10T11:34:57.279Z,100505.05
2017-11-10T11:37:26.403Z,100492.24
2017-11-10T11:39:54.754Z,100487.81
2017-11-10T11:42:24.125Z,100483.03
2017-11-10T11:44:52.750Z,100482.88
2017-11-10T11:47:21.868Z,100483.12
2017-11-10T11:49:50.256Z,100461.61
2017-11-10T11:52:18.989Z,100460.59
2017-11-10T11:54:47.354Z,100456.28
2017-11-10T11:57:16.366Z,100449.65
2017-11-10T11:59:44.715Z,100456.41
2017-11-10T12:02:13.391Z,100446.27
2017-11-10T12:04:42.468Z,100434.60
2017-11-10T12:07:11.152Z,100436.41
2017-11-10T12:09:41.053Z,100441.00
2017-11-10T20:21:09.749Z,100584.03
2017-11-10T20:23:38.559Z,100573.30
2017-11-10T20:26:06.910Z,100573.22
2017-11-10T20:28:35.502Z,100579.69
2017-11-10T20:31:03.844Z,100562.97
2017-11-10T20:33:32.231Z,100558.97
2017-11-10T20:36:01.680Z,100563.13
2017-11-10T20:38:30.023Z,100550.36
2017-11-10T20:40:59.487Z,100557.88
2017-11-10T20:43:28.925Z,100563.68
2017-11-10T20:45:58.303Z,100557.25
2017-11-10T20:48:26.921Z,100566.14
2017-11-10T20:50:55.500Z,100568.77
2017-11-10T20:53:23.856Z,100565.89
2017-11-10T20:55:52.224Z,100563.33
2017-11-10T20:58:21.166Z,100564.79
2017-11-10T21:00:49.518Z,100568.83
2017-11-10T21:03:18.761Z,100564.25
2017-11-10T21:05:47.176Z,100568.55
2017-11-10T21:08:16.337Z,100567.17
2017-11-10T21:10:45.208Z,100563.48
2017-11-10T21:13:14.450Z,100560.32
2017-11-10T21:15:43.505Z,100576.09
2017-11-10T21:18:11.869Z,100567.58
2017-11-10T21:20:41.562Z,100560.64
2017-11-10T21:23:10.478Z,100561.48
2017-11-10T21:25:38.847Z,100558.17
2017-11-10T21:28:08.063Z,100568.92
2017-11-10T21:30:37.385Z,100564.27
2017-11-10T21:33:05.731Z,100564.48
2017-11-10T21:35:34.103Z,100561.77
2017-11-10T21:38:02.464Z,100574.19
2017-11-10T21:40:31.681Z,100566.70
2017-11-10T21:43:01.068Z,100573.23
2017-11-10T21:45:30.554Z,100575.28
2017-11-10T21:47:59.014Z,100576.64
2017-11-10T21:50:27.818Z,100580.19
2017-11-10T21:52:57.050Z,100580.47
2017-11-10T21:55:26.199Z,100565.68
2017-11-10T21:57:54.710Z,100576.58
2017-11-10T22:00:23.072Z,100563.41
2017-11-10T22:02:51.426Z,100566.81
2017-11-10T22:05:19.797Z,100576.85
2017-11-10T22:07:48.913Z,100565.11
2017-11-10T22:10:17.232Z,100566.45
2017-11-10T22:12:45.748Z,100565.75
2017-11-10T22:15:14.081Z,100571.70
2017-11-10T22:17:42.424Z,100576.80
2017-11-10T22:20:10.835Z,100575.73
2017-11-10T22:22:39.859Z,100574.73
2017-11-10T22:25:11.394Z,100575.09
2017-11-10T22:27:39.791Z,100568.37
2017-11-10T22:30:08.899Z,100564.41
2017-11-10T22:32:37.971Z,100562.99
2017-11-10T22:35:06.552Z,100565.33
2017-11-10T22:37:34.874Z,100571.20
2017-11-10T22:40:03.954Z,100570.91
2017-11-10T22:42:32.340Z,100577.71
2017-11-10T22:45:00.711Z,100562.71
2017-11-10T22:47:29.817Z,100567.94
2017-11-10T22:49:59.351Z,100566.25
2017-11-10T22:52:27.985Z,100566.60
2017-11-10T22:54:57.103Z,100565.61
2017-11-10T22:57:25.588Z,100561.43
2017-11-10T22:59:53.963Z,100564.26
2017-11-10T23:02:22.309Z,100566.14
2017-11-10T23:04:50.794Z,100564.47
2017-11-10T23:07:19.138Z,100559.01
2017-11-10T23:09:47.514Z,100569.09
2017-11-10T23:12:15.935Z,100583.13
2017-11-10T23:14:44.301Z,100590.30
2017-11-10T23:17:12.668Z,100588.75
2017-11-10T23:19:42.212Z,100571.72
2017-11-10T23:22:10.557Z,100565.94
2017-11-10T23:24:39.245Z,100557.65
2017-11-10T23:27:08.480Z,100557.56
2017-11-10T23:29:36.837Z,100560.51
2017-11-10T23:32:05.762Z,100574.89
2017-11-10T23:34:34.174Z,100575.13
2017-11-10T23:37:03.486Z,100580.92
2017-11-10T23:39:32.279Z,100583.52
2017-11-10T23:42:00.894Z,100614.15
2017-11-10T23:44:29.287Z,100613.98
2017-11-10T23:46:59.023Z,100618.12
2017-11-10T23:49:27.946Z,100613.15
2017-11-10T23:51:56.326Z,100621.42
2017-11-10T23:54:24.725Z,100613.46
2017-11-10T23:56:54.228Z,100613.42
2017-11-10T23:59:22.618Z,100612.19
